Time;durP1;ratioP1;P1;durP2;ratioP2;P2;SDS_P1;SDS_P2;PMS_P1;PMS_P2;Temp;Humidity;BMP_temperature;BMP_pressure;BME280_temperature;BME280_humidity;BME280_pressure;Samples;Min_cycle;Max_cycle;Signal;HPM_P1;HPM_P2
2021/10/09 00:01:14;;;;;;;16.58;6.93;;;;;;;3.93;60.08;99967.22;4936497;29;20074;-78
2021/10/09 00:03:40;;;;;;;14.93;7.25;;;;;;;3.88;59.80;99965.16;4954084;29;20109;-80
2021/10/09 00:06:05;;;;;;;13.70;7.07;;;;;;;3.87;59.47;99960.75;4953553;29;20066;-78
2021/10/09 00:08:31;;;;;;;14.70;6.80;;;;;;;3.85;60.31;99965.59;4953422;29;20046;-78
2021/10/09 00:10:57;;;;;;;14.55;6.85;;;;;;;3.83;59.71;99964.97;4953464;29;20035;-78
2021/10/09 00:13:23;;;;;;;18.52;7.72;;;;;;;3.86;60.26;99959.13;4953713;29;20071;-78
2021/10/09 00:15:48;;;;;;;16.83;7.13;;;;;;;3.85;60.61;99962.03;4953255;29;20020;-77
2021/10/09 00:18:14;;;;;;;16.02;6.82;;;;;;;3.84;60.05;99955.78;4954363;29;20046;-77
2021/10/09 00:20:39;;;;;;;18.65;7.55;;;;;;;3.77;59.85;99964.97;4954603;29;20019;-77
2021/10/09 00:23:05;;;;;;;16.80;7.18;;;;;;;3.73;60.13;99959.16;4953591;29;20035;-77
2021/10/09 00:25:30;;;;;;;18.13;7.00;;;;;;;3.69;59.85;99953.31;4954791;29;20035;-77
2021/10/09 00:27:56;;;;;;;13.80;7.22;;;;;;;3.63;60.01;99956.91;4954916;29;20368;-78
2021/10/09 00:30:21;;;;;;;16.70;8.45;;;;;;;3.61;60.66;99960.88;4951881;29;20042;-77
2021/10/09 00:32:47;;;;;;;20.13;8.63;;;;;;;3.58;60.84;99956.72;4954480;29;20115;-78
2021/10/09 00:35:13;;;;;;;15.05;7.32;;;;;;;3.53;60.19;99970.06;4953812;29;20142;-78
2021/10/09 00:37:38;;;;;;;14.85;7.68;;;;;;;3.50;60.41;99967.78;4953953;29;20032;-77
2021/10/09 00:40:05;;;;;;;19.17;7.60;;;;;;;3.49;60.70;99960.69;4953762;29;20091;-78
2021/10/09 00:42:30;;;;;;;15.40;6.85;;;;;;;3.48;61.20;99964.44;4954203;29;20041;-77
2021/10/09 00:44:56;;;;;;;18.83;7.03;;;;;;;3.47;60.96;99966.31;4952060;29;20031;-77
2021/10/09 00:47:23;;;;;;;17.02;7.40;;;;;;;3.47;61.24;99960.06;4953732;29;20069;-77
2021/10/09 00:49:48;;;;;;;19.08;7.00;;;;;;;3.51;61.72;99964.84;4951465;29;20462;-77
2021/10/09 00:52:15;;;;;;;17.08;7.78;;;;;;;3.48;61.08;99961.75;4954074;29;20114;-76
2021/10/09 00:54:46;;;;;;;15.95;7.03;;;;;;;3.47;60.90;99958.19;4953285;29;20094;-77
2021/10/09 00:57:13;;;;;;;20.17;8.15;;;;;;;3.50;60.72;99957.75;4951913;29;20101;-77
2021/10/09 00:59:40;;;;;;;13.82;7.05;;;;;;;3.48;60.95;99959.03;4953829;29;20027;-77
2021/10/09 01:02:07;;;;;;;20.15;7.80;;;;;;;3.48;60.65;99961.75;4936413;29;20024;-78
2021/10/09 01:04:33;;;;;;;15.48;7.70;;;;;;;3.46;61.18;99958.41;4953365;29;20031;-77
2021/10/09 01:07:03;;;;;;;13.82;7.55;;;;;;;3.45;60.77;99963.00;4952543;28;20031;-79
2021/10/09 01:09:29;;;;;;;20.35;8.38;;;;;;;3.43;61.35;99957.78;4950664;29;20395;-78
2021/10/09 01:11:54;;;;;;;19.75;7.35;;;;;;;3.40;61.05;99958.19;4953643;29;20020;-77
2021/10/09 01:14:19;;;;;;;18.42;8.13;;;;;;;3.40;61.74;99965.53;4952698;29;20041;-77
2021/10/09 01:16:46;;;;;;;16.33;7.53;;;;;;;3.42;61.41;99953.41;4951844;29;20031;-77
2021/10/09 01:19:12;;;;;;;20.75;7.00;;;;;;;3.42;61.51;99958.00;4952404;29;20475;-78
2021/10/09 01:21:44;;;;;;;14.38;6.45;;;;;;;3.34;61.58;99955.50;4953432;29;20452;-78
2021/10/09 01:24:10;;;;;;;17.38;7.28;;;;;;;3.30;61.33;99949.66;4952209;29;20114;-78
2021/10/09 01:26:37;;;;;;;15.13;6.97;;;;;;;3.26;61.53;99957.41;4952852;29;20118;-77
2021/10/09 01:29:04;;;;;;;14.43;6.80;;;;;;;3.27;61.76;99953.66;4952937;29;20041;-78
2021/10/09 01:31:31;;;;;;;15.32;7.10;;;;;;;3.31;61.53;99958.66;4950509;29;20035;-77
2021/10/09 01:33:56;;;;;;;14.48;6.95;;;;;;;3.32;61.04;99958.41;4953820;29;20044;-78
2021/10/09 01:36:22;;;;;;;14.23;6.78;;;;;;;3.31;61.54;99961.34;4954060;29;20035;-77
2021/10/09 01:38:49;;;;;;;14.70;7.20;;;;;;;3.24;61.66;99955.94;4953853;29;20110;-78
2021/10/09 01:41:15;;;;;;;12.80;6.80;;;;;;;3.21;61.81;99957.19;4954174;29;20023;-77
2021/10/09 01:43:40;;;;;;;14.65;7.28;;;;;;;3.21;61.75;99948.25;4952517;29;20026;-77
2021/10/09 01:46:06;;;;;;;16.25;8.02;;;;;;;3.22;61.42;99953.44;4951378;29;20044;-77
2021/10/09 01:48:35;;;;;;;15.88;6.90;;;;;;;3.22;61.58;99950.72;4950572;29;20098;-78
2021/10/09 01:51:01;;;;;;;15.45;6.30;;;;;;;3.12;61.75;99948.47;4950333;29;20043;-77
2021/10/09 01:53:27;;;;;;;15.93;7.95;;;;;;;3.07;62.35;99944.69;4953373;29;20110;-77
2021/10/09 01:55:52;;;;;;;15.32;8.25;;;;;;;3.02;62.13;99942.63;4952580;29;20107;-77
2021/10/09 01:58:18;;;;;;;17.02;8.13;;;;;;;2.99;62.52;99943.03;4952705;29;20066;-78
2021/10/09 02:00:44;;;;;;;18.02;7.65;;;;;;;2.93;62.63;99947.44;4951694;29;20031;-79
2021/10/09 02:03:10;;;;;;;16.92;8.10;;;;;;;2.91;62.17;99946.81;4951554;29;20034;-79
2021/10/09 02:05:35;;;;;;;17.52;8.27;;;;;;;2.90;62.28;99947.00;4953817;29;20027;-78
2021/10/09 02:08:02;;;;;;;17.20;8.00;;;;;;;2.88;62.76;99938.25;4953934;29;20022;-79
2021/10/09 02:10:28;;;;;;;13.27;7.20;;;;;;;2.89;62.37;99957.00;4953122;29;20043;-78
2021/10/09 02:12:55;;;;;;;16.70;7.57;;;;;;;2.84;62.68;99951.38;4953258;29;20031;-78
2021/10/09 02:25:46;;;;;;;16.15;8.98;;;;;;;2.72;62.90;99944.91;4953353;29;20502;-77
2021/10/09 02:28:19;;;;;;;17.13;7.88;;;;;;;2.72;62.89;99944.91;4934153;29;20031;-78
2021/10/09 02:30:46;;;;;;;18.50;9.10;;;;;;;2.71;63.20;99954.09;4950806;29;20020;-77
2021/10/09 02:33:12;;;;;;;18.65;8.50;;;;;;;2.70;62.96;99955.13;4952612;29;20495;-79
2021/10/09 02:35:38;;;;;;;20.17;8.40;;;;;;;2.67;63.65;99953.66;4951364;29;20035;-78
2021/10/09 02:38:07;;;;;;;18.10;8.13;;;;;;;2.71;63.60;99956.78;4952617;29;20118;-77
2021/10/09 02:40:32;;;;;;;16.05;7.63;;;;;;;2.76;63.21;99960.56;4950611;29;20031;-77
2021/10/09 02:42:58;;;;;;;14.25;8.18;;;;;;;2.79;63.48;99962.00;4950533;29;20031;-77
2021/10/09 02:45:23;;;;;;;21.25;9.02;;;;;;;2.76;63.79;99948.88;4934032;29;20081;-78
2021/10/09 02:47:49;;;;;;;19.35;8.55;;;;;;;2.77;63.08;99961.38;4934399;29;20446;-78
2021/10/09 02:50:15;;;;;;;17.05;8.57;;;;;;;2.75;63.60;99956.19;4945220;29;20365;-78
2021/10/09 02:52:41;;;;;;;14.38;7.78;;;;;;;2.73;63.02;99965.53;4949744;29;20536;-77
2021/10/09 02:55:07;;;;;;;16.40;8.68;;;;;;;2.67;63.03;99957.19;4950210;29;20027;-78
2021/10/09 02:57:33;;;;;;;14.32;7.97;;;;;;;2.64;63.18;99957.66;4950675;29;20042;-77
2021/10/09 02:59:58;;;;;;;18.30;8.80;;;;;;;2.66;63.34;99963.66;4950024;29;20015;-78
2021/10/09 03:02:24;;;;;;;22.70;9.43;;;;;;;2.68;63.77;99950.75;4950470;29;20031;-78
2021/10/09 03:04:49;;;;;;;18.85;9.10;;;;;;;2.68;63.19;99955.34;4950694;29;20043;-78
2021/10/09 03:07:15;;;;;;;18.38;9.65;;;;;;;2.68;63.71;99961.56;4950602;29;20046;-78
2021/10/09 03:09:40;;;;;;;18.27;11.10;;;;;;;2.66;63.30;99955.53;4950346;29;20448;-78
2021/10/09 03:12:07;;;;;;;20.98;12.02;;;;;;;2.62;63.13;99967.84;4950676;29;20051;-79
2021/10/09 03:14:32;;;;;;;19.38;11.57;;;;;;;2.60;63.84;99967.22;4951012;29;20026;-78
2021/10/09 03:16:58;;;;;;;19.73;9.70;;;;;;;2.59;63.82;99954.72;4951785;29;20707;-78
2021/10/09 03:19:23;;;;;;;16.17;8.60;;;;;;;2.57;63.61;99964.94;4950817;29;20424;-78
2021/10/09 03:21:49;;;;;;;14.48;7.88;;;;;;;2.58;62.94;99954.91;4951277;29;20476;-79
2021/10/09 03:24:14;;;;;;;16.75;7.93;;;;;;;2.50;63.55;99961.38;4951386;29;20046;-79
2021/10/09 03:26:40;;;;;;;18.25;8.43;;;;;;;2.45;63.32;99966.56;4951194;29;20049;-78
2021/10/09 03:29:05;;;;;;;18.02;8.88;;;;;;;2.42;63.40;99961.56;4950873;28;20040;-78
2021/10/09 03:31:31;;;;;;;18.48;8.80;;;;;;;2.38;63.48;99964.66;4954379;29;20023;-79
2021/10/09 03:33:56;;;;;;;14.52;7.97;;;;;;;2.37;63.26;99964.88;4954096;29;20058;-79
2021/10/09 03:36:22;;;;;;;16.48;8.77;;;;;;;2.35;63.28;99956.94;4954295;29;20476;-78
2021/10/09 03:38:47;;;;;;;16.10;8.15;;;;;;;2.28;63.78;99966.94;4954064;29;20098;-78
2021/10/09 03:41:14;;;;;;;15.93;8.30;;;;;;;2.26;63.88;99960.88;4954844;29;20110;-77
2021/10/09 03:43:42;;;;;;;21.20;9.68;;;;;;;2.27;63.44;99965.25;4955032;29;20028;-78
2021/10/09 03:48:45;;;;;;;17.05;8.55;;;;;;;2.29;63.22;99975.91;4954581;29;20019;-78
2021/10/09 03:53:55;;;;;;;15.02;8.05;;;;;;;2.23;63.29;99972.16;4954448;29;20043;-78
2021/10/09 03:56:21;;;;;;;14.65;7.75;;;;;;;2.20;63.88;99972.56;4954762;29;20031;-78
2021/10/09 03:58:47;;;;;;;17.10;8.77;;;;;;;2.18;64.11;99972.75;4954469;29;20034;-78
2021/10/09 04:01:12;;;;;;;15.90;8.25;;;;;;;2.13;64.09;99967.09;4954895;29;20416;-79
2021/10/09 04:03:38;;;;;;;15.15;8.23;;;;;;;2.10;63.88;99972.91;4954101;29;20111;-78
2021/10/09 04:06:03;;;;;;;15.65;8.30;;;;;;;2.06;63.81;99972.50;4954487;29;20032;-78
2021/10/09 04:08:29;;;;;;;20.52;11.10;;;;;;;2.02;63.48;99973.94;4953815;29;20066;-79
2021/10/09 04:10:54;;;;;;;25.23;11.27;;;;;;;1.97;64.03;99975.59;4954493;29;20027;-79
2021/10/09 04:13:20;;;;;;;18.67;9.18;;;;;;;1.96;63.80;99979.34;4953635;29;20043;-78
2021/10/09 04:15:45;;;;;;;19.00;8.25;;;;;;;1.93;64.32;99973.28;4953878;29;20028;-78
2021/10/09 04:18:11;;;;;;;13.90;8.35;;;;;;;1.91;63.79;99980.78;4953086;29;20041;-78
2021/10/09 04:20:38;;;;;;;17.42;8.85;;;;;;;1.91;64.22;99975.38;4953894;29;20033;-78
2021/10/09 04:23:04;;;;;;;14.40;7.15;;;;;;;1.96;63.96;99979.34;4952832;29;20125;-78
2021/10/09 04:25:31;;;;;;;17.42;8.85;;;;;;;1.89;64.78;99980.16;4953810;29;20023;-78
2021/10/09 04:27:57;;;;;;;14.88;8.55;;;;;;;1.87;64.93;99984.91;4954140;29;20031;-78
2021/10/09 04:30:22;;;;;;;18.85;9.82;;;;;;;1.85;64.94;99972.63;4953840;29;20361;-78
2021/10/09 04:32:47;;;;;;;15.82;9.27;;;;;;;1.89;65.06;99976.59;4954406;29;20030;-78
2021/10/09 04:35:13;;;;;;;18.95;9.07;;;;;;;1.89;65.29;99982.00;4953956;29;20035;-78
2021/10/09 04:37:38;;;;;;;17.85;8.52;;;;;;;1.87;64.57;99978.66;4953860;29;20035;-78
2021/10/09 04:40:05;;;;;;;16.63;8.45;;;;;;;1.87;65.39;99984.06;4954039;29;20559;-78
2021/10/09 04:42:31;;;;;;;16.10;8.23;;;;;;;1.91;65.43;99979.94;4953898;28;20127;-79
2021/10/09 04:44:57;;;;;;;14.65;8.45;;;;;;;1.88;64.73;99969.50;4954355;29;20102;-78
2021/10/09 04:47:22;;;;;;;19.25;9.73;;;;;;;1.91;65.04;99972.66;4954033;29;20024;-79
2021/10/09 04:49:48;;;;;;;19.27;9.13;;;;;;;1.91;64.65;99985.34;4953647;29;20059;-78
2021/10/09 04:52:13;;;;;;;17.65;8.77;;;;;;;1.88;64.75;99985.75;4953858;29;20033;-79
2021/10/09 04:54:39;;;;;;;16.27;8.88;;;;;;;1.87;64.93;99986.78;4953835;29;20361;-79
2021/10/09 04:57:04;;;;;;;15.85;9.25;;;;;;;1.87;64.82;99987.63;4953909;29;20065;-79
2021/10/09 04:59:30;;;;;;;15.13;8.93;;;;;;;1.85;64.74;99986.13;4953874;29;20039;-79
2021/10/09 05:01:55;;;;;;;17.23;9.20;;;;;;;1.85;64.89;99988.84;4953769;29;20079;-78
2021/10/09 05:04:21;;;;;;;18.85;10.27;;;;;;;1.85;65.18;99994.25;4953421;29;20023;-78
2021/10/09 05:06:46;;;;;;;19.40;9.93;;;;;;;1.81;65.11;100001.13;4951482;29;20320;-79
2021/10/09 05:09:11;;;;;;;20.23;10.10;;;;;;;1.75;65.31;100002.75;4953155;29;20051;-79
2021/10/09 05:11:37;;;;;;;17.60;9.63;;;;;;;1.70;64.81;99999.81;4953504;29;20058;-77
2021/10/09 05:14:02;;;;;;;21.33;10.65;;;;;;;1.62;65.22;99995.41;4953795;29;20469;-76
2021/10/09 05:16:28;;;;;;;17.90;8.57;;;;;;;1.59;65.81;100001.22;4953232;29;20038;-78
2021/10/09 05:18:53;;;;;;;17.42;8.43;;;;;;;1.54;65.89;100001.81;4952781;29;20031;-77
2021/10/09 05:21:19;;;;;;;19.70;9.85;;;;;;;1.55;66.02;99998.06;4953264;29;20051;-77
2021/10/09 05:23:45;;;;;;;18.90;9.95;;;;;;;1.54;66.01;100006.38;4953341;29;20019;-77
2021/10/09 05:26:11;;;;;;;22.00;10.35;;;;;;;1.58;66.01;99999.53;4953257;29;20030;-78
2021/10/09 05:31:03;;;;;;;21.17;11.02;;;;;;;1.66;66.37;100012.91;4952881;29;20150;-77
2021/10/09 05:35:59;;;;;;;19.05;9.70;;;;;;;1.82;66.06;100005.50;4952053;29;20038;-77
2021/10/09 05:38:25;;;;;;;17.85;9.15;;;;;;;1.89;66.58;100007.19;4952792;29;20027;-77
2021/10/09 05:40:51;;;;;;;19.85;9.48;;;;;;;1.90;65.84;100008.03;4953293;29;20595;-78
2021/10/09 05:43:16;;;;;;;18.23;9.88;;;;;;;1.96;65.96;100014.50;4953319;29;20073;-79
2021/10/09 05:45:42;;;;;;;16.48;8.73;;;;;;;2.01;66.11;100012.88;4950720;29;20023;-78
2021/10/09 05:48:08;;;;;;;18.20;9.40;;;;;;;2.06;65.99;100012.25;4953013;29;20074;-78
2021/10/09 05:50:45;;;;;;;18.70;9.18;;;;;;;2.10;66.33;100018.94;4952269;29;20031;-77
2021/10/09 05:56:00;;;;;;;21.10;9.68;;;;;;;2.15;66.24;100021.88;4930173;29;20035;-79
2021/10/09 06:01:25;;;;;;;19.48;9.77;;;;;;;2.22;66.31;100025.44;4953015;29;20035;-78
2021/10/09 06:26:16;;;;;;;22.35;9.48;;;;;;;2.84;66.90;100043.50;4951893;29;20134;-78
2021/10/09 07:00:41;;;;;;;21.75;11.07;;;;;;;3.80;67.62;100056.84;4952072;29;20053;-78
2021/10/09 07:03:06;;;;;;;27.00;13.25;;;;;;;3.91;67.23;100061.63;4952257;29;20035;-78
2021/10/09 07:05:34;;;;;;;24.58;12.13;;;;;;;4.03;66.75;100061.78;4951690;28;20035;-76
2021/10/09 07:08:08;;;;;;;32.10;12.73;;;;;;;4.14;66.57;100055.69;4951656;29;20127;-77
2021/10/09 07:10:37;;;;;;;23.05;10.73;;;;;;;4.26;67.14;100057.75;4954331;29;20054;-77
2021/10/09 07:13:02;;;;;;;22.65;11.57;;;;;;;4.38;66.36;100063.34;4951651;29;20058;-76
2021/10/09 07:15:28;;;;;;;23.30;11.40;;;;;;;4.49;65.98;100065.34;4953645;29;20443;-76
2021/10/09 07:17:53;;;;;;;23.42;12.48;;;;;;;4.60;66.40;100061.97;4952794;29;20030;-78
2021/10/09 07:20:19;;;;;;;26.70;12.23;;;;;;;4.71;65.59;100060.44;4952563;29;20034;-77
2021/10/09 07:22:47;;;;;;;22.75;11.27;;;;;;;4.82;65.71;100061.66;4952165;29;20042;-77
2021/10/09 07:25:14;;;;;;;30.05;14.13;;;;;;;4.94;64.93;100061.78;4951723;29;20019;-77
2021/10/09 07:27:40;;;;;;;22.33;10.60;;;;;;;5.03;64.64;100068.63;4951050;29;20097;-77
2021/10/09 07:30:07;;;;;;;21.63;11.52;;;;;;;5.16;64.51;100067.69;4951773;29;20023;-78
2021/10/09 07:32:33;;;;;;;21.27;11.40;;;;;;;5.26;63.65;100063.66;4951664;29;20292;-77
2021/10/09 07:34:59;;;;;;;18.80;10.85;;;;;;;5.39;63.42;100070.84;4951856;29;20062;-78
2021/10/09 07:37:25;;;;;;;22.80;11.23;;;;;;;5.51;62.83;100063.63;4952665;29;20501;-76
2021/10/09 07:39:50;;;;;;;22.65;11.10;;;;;;;5.62;63.42;100072.97;4958184;29;20031;-77
2021/10/09 07:42:16;;;;;;;20.08;9.85;;;;;;;5.72;63.53;100065.09;4958415;29;21317;-77
2021/10/09 07:44:41;;;;;;;25.67;11.75;;;;;;;5.82;63.20;100067.31;4953873;29;20023;-76
2021/10/09 07:47:08;;;;;;;17.77;10.13;;;;;;;5.94;62.94;100070.94;4952225;29;20054;-77
2021/10/09 07:49:35;;;;;;;21.77;10.27;;;;;;;6.05;63.21;100066.69;4951984;29;20090;-76
2021/10/09 07:52:00;;;;;;;19.48;10.52;;;;;;;6.17;62.26;100077.66;4951245;29;20106;-77
2021/10/09 07:54:26;;;;;;;23.08;9.93;;;;;;;6.24;61.06;100066.66;4951970;29;20506;-77
2021/10/09 07:56:51;;;;;;;18.75;10.55;;;;;;;6.30;61.13;100068.50;4952866;29;20492;-77
2021/10/09 07:59:17;;;;;;;25.08;10.80;;;;;;;6.36;60.44;100067.56;4952866;29;20117;-76
2021/10/09 08:01:42;;;;;;;18.38;10.30;;;;;;;6.47;60.35;100074.16;4951756;29;20035;-77
2021/10/09 08:04:10;;;;;;;18.05;9.02;;;;;;;6.53;59.73;100067.78;4952224;29;20083;-77
2021/10/09 08:06:36;;;;;;;20.33;10.32;;;;;;;6.60;59.75;100072.31;4952466;29;20042;-77
2021/10/09 08:09:02;;;;;;;18.83;9.35;;;;;;;6.68;58.80;100075.53;4935036;29;20052;-76
2021/10/09 08:11:27;;;;;;;15.70;9.68;;;;;;;6.74;58.61;100084.69;4952570;29;20122;-77
2021/10/09 08:13:53;;;;;;;20.33;9.10;;;;;;;6.80;58.48;100075.59;4952618;29;20038;-76
2021/10/09 08:16:18;;;;;;;18.33;9.25;;;;;;;6.91;58.81;100086.78;4952502;28;20047;-77
2021/10/09 08:18:43;;;;;;;20.95;9.52;;;;;;;6.99;58.36;100087.28;4954067;29;20079;-76
2021/10/09 08:21:11;;;;;;;17.67;8.60;;;;;;;7.08;59.00;100087.78;4954139;29;20106;-77
2021/10/09 08:23:53;;;;;;;19.08;9.95;;;;;;;7.18;58.29;100084.50;4955749;29;20118;-78
2021/10/09 08:37:31;;;;;;;17.08;9.43;;;;;;;7.52;55.40;100087.50;4955379;29;20146;-76
2021/10/09 08:39:56;;;;;;;18.83;9.13;;;;;;;7.58;56.12;100088.44;4954426;29;20027;-78
2021/10/09 08:42:22;;;;;;;20.83;9.13;;;;;;;7.65;55.75;100085.63;4955313;29;20043;-78
2021/10/09 08:44:48;;;;;;;15.65;8.30;;;;;;;7.74;56.20;100086.94;4953487;29;20019;-75
2021/10/09 08:47:13;;;;;;;17.85;9.13;;;;;;;7.83;55.92;100090.97;4952894;29;20031;-75
2021/10/09 08:49:39;;;;;;;12.32;7.97;;;;;;;7.93;55.61;100084.91;4954330;29;20027;-76
2021/10/09 08:52:06;;;;;;;18.55;8.70;;;;;;;8.00;55.61;100088.34;4955077;29;20023;-76
2021/10/09 08:54:40;;;;;;;16.02;8.38;;;;;;;8.10;54.64;100086.91;4954260;29;20039;-75
2021/10/09 08:57:13;;;;;;;17.17;8.68;;;;;;;8.17;54.57;100082.16;4954585;29;20031;-75
2021/10/09 08:59:47;;;;;;;16.35;8.07;;;;;;;8.23;53.89;100089.38;4953737;29;20031;-75
2021/10/09 09:26:49;;;;;;;11.82;6.05;;;;;;;9.20;50.78;100084.16;4949528;29;20058;-75
2021/10/09 09:32:26;;;;;;;11.15;6.03;;;;;;;9.29;48.86;100086.50;4953011;29;20041;-83
2021/10/09 09:40:13;;;;;;;12.93;6.07;;;;;;;9.40;47.44;100069.16;4950687;29;20039;-80
2021/10/09 09:42:47;;;;;;;13.45;6.25;;;;;;;9.46;47.02;100070.91;4953699;29;20464;-78
2021/10/09 09:45:25;;;;;;;13.25;5.97;;;;;;;9.52;46.36;100069.91;4951880;29;20475;-82
2021/10/09 09:47:53;;;;;;;15.88;7.05;;;;;;;9.58;47.70;100075.47;4936432;29;20031;-79
2021/10/09 09:50:19;;;;;;;13.73;6.95;;;;;;;9.63;46.27;100065.41;4945108;29;20043;-81
2021/10/09 09:52:45;;;;;;;9.68;5.57;;;;;;;9.70;46.32;100061.69;4952226;28;20019;-80
2021/10/09 09:55:13;;;;;;;14.00;6.70;;;;;;;9.73;46.00;100070.22;4953754;29;20479;-83
2021/10/09 09:57:40;;;;;;;16.90;7.78;;;;;;;9.71;43.11;100050.47;4952167;29;20032;-84
2021/10/09 10:00:13;;;;;;;15.15;7.47;;;;;;;9.72;44.95;100056.78;4952581;29;20024;-81
2021/10/09 10:02:51;;;;;;;11.88;6.82;;;;;;;9.79;45.57;100054.69;4950676;29;20051;-81
2021/10/09 10:05:18;;;;;;;10.23;4.97;;;;;;;9.84;44.47;100052.00;4951542;29;20160;-81
2021/10/09 10:07:44;;;;;;;11.90;7.07;;;;;;;9.86;44.95;100054.53;4951833;29;20038;-82
2021/10/09 10:10:10;;;;;;;10.13;5.75;;;;;;;9.88;42.84;100064.13;4949633;29;20031;-81
2021/10/09 10:12:39;;;;;;;11.88;6.10;;;;;;;9.90;43.32;100048.28;4948969;29;20114;-81
2021/10/09 10:15:10;;;;;;;12.98;6.15;;;;;;;9.93;43.38;100049.69;4952443;29;20034;-79
2021/10/09 10:17:42;;;;;;;12.88;5.85;;;;;;;10.01;42.95;100040.19;4950749;29;20033;-79
2021/10/09 10:20:15;;;;;;;12.68;6.63;;;;;;;10.08;43.35;100040.84;4950481;29;20041;-81
2021/10/09 10:22:41;;;;;;;13.07;6.20;;;;;;;10.18;44.52;100045.63;4948971;29;20027;-81
2021/10/09 10:25:31;;;;;;;13.07;5.88;;;;;;;10.25;41.97;100040.78;4951181;29;20035;-81
2021/10/09 10:28:01;;;;;;;12.27;5.53;;;;;;;10.27;41.28;100050.41;4938238;29;20610;-80
2021/10/09 10:30:29;;;;;;;10.02;5.90;;;;;;;10.31;41.08;100047.16;4951477;29;20031;-79
2021/10/09 10:32:58;;;;;;;11.00;5.95;;;;;;;10.33;42.64;100042.25;4951864;29;20034;-79
2021/10/09 10:35:30;;;;;;;9.55;5.03;;;;;;;10.37;41.48;100048.88;4951851;29;20061;-80
2021/10/09 10:38:04;;;;;;;9.32;5.90;;;;;;;10.39;41.94;100042.06;4952472;29;20475;-81
2021/10/09 10:40:45;;;;;;;10.70;5.15;;;;;;;10.47;43.16;100046.28;4934084;29;20392;-79
2021/10/09 10:43:29;;;;;;;9.45;5.25;;;;;;;10.56;42.70;100042.00;4952959;29;20027;-79
2021/10/09 10:45:54;;;;;;;15.07;6.90;;;;;;;10.66;43.48;100052.25;4950160;29;20035;-79
2021/10/09 10:48:42;;;;;;;15.93;6.70;;;;;;;10.69;42.22;100040.78;4951342;29;20026;-79
2021/10/09 10:51:13;;;;;;;15.10;6.38;;;;;;;10.70;42.18;100036.94;4951886;29;20451;-81
2021/10/09 10:53:59;;;;;;;8.82;5.13;;;;;;;10.80;43.11;100047.19;4952307;29;20031;-80
2021/10/09 10:56:24;;;;;;;8.93;4.72;;;;;;;10.85;41.61;100038.16;4951192;29;20031;-80
2021/10/09 10:59:09;;;;;;;11.23;5.35;;;;;;;10.86;42.10;100040.66;4950822;29;20456;-82
2021/10/09 11:01:35;;;;;;;10.95;5.40;;;;;;;10.91;42.89;100034.41;4952206;29;20598;-83
2021/10/09 11:04:00;;;;;;;10.60;5.43;;;;;;;10.99;42.51;100038.59;4952456;29;20050;-81
2021/10/09 11:06:27;;;;;;;11.45;6.20;;;;;;;11.07;43.87;100037.28;4952456;29;20027;-83
2021/10/09 11:08:54;;;;;;;14.52;6.28;;;;;;;11.17;44.42;100040.13;4951257;29;20323;-81
2021/10/09 11:11:42;;;;;;;9.75;5.60;;;;;;;11.33;43.78;100035.59;4932095;29;20431;-83
2021/10/09 11:14:08;;;;;;;12.63;5.70;;;;;;;11.44;43.04;100034.56;4952480;29;20031;-81
2021/10/09 11:16:33;;;;;;;10.75;5.60;;;;;;;11.48;43.55;100034.88;4952090;29;20555;-82
2021/10/09 11:18:59;;;;;;;10.55;5.20;;;;;;;11.51;42.27;100034.34;4951693;29;20031;-81
2021/10/09 11:21:25;;;;;;;10.63;5.38;;;;;;;11.50;43.09;100037.34;4951769;29;20522;-81
2021/10/09 11:23:56;;;;;;;9.95;4.70;;;;;;;11.55;43.17;100040.13;4935365;29;20679;-80
2021/10/09 11:26:22;;;;;;;16.77;6.32;;;;;;;11.60;42.54;100023.69;4952315;29;20024;-81
2021/10/09 11:29:08;;;;;;;11.57;5.55;;;;;;;11.63;42.56;100025.91;4950264;29;20028;-81
2021/10/09 11:31:34;;;;;;;11.45;5.22;;;;;;;11.70;42.50;100015.53;4934184;29;20122;-79
2021/10/09 11:34:01;;;;;;;12.00;5.10;;;;;;;11.78;41.94;100019.69;4950228;29;20114;-79
2021/10/09 11:36:27;;;;;;;9.40;5.25;;;;;;;11.80;41.18;100016.69;4949607;29;20039;-80
2021/10/09 11:39:11;;;;;;;8.02;5.40;;;;;;;11.83;40.67;100014.22;4947909;29;20081;-81
2021/10/09 11:41:38;;;;;;;14.57;6.25;;;;;;;11.85;41.33;100014.78;4950444;29;20020;-80
2021/10/09 11:44:25;;;;;;;9.88;5.35;;;;;;;11.95;41.52;100015.94;4950978;29;20039;-80
2021/10/09 11:55:29;;;;;;;10.52;5.38;;;;;;;12.16;40.53;100014.13;4955010;29;20042;-79
2021/10/09 11:57:56;;;;;;;8.10;4.70;;;;;;;12.09;39.98;100008.88;4955505;29;20468;-78
2021/10/09 12:00:27;;;;;;;10.88;5.15;;;;;;;12.04;39.75;100011.59;4954763;29;20030;-79
2021/10/09 12:02:57;;;;;;;9.32;4.78;;;;;;;12.01;39.49;100001.97;4953992;29;20031;-77
2021/10/09 12:05:23;;;;;;;10.75;4.70;;;;;;;12.05;40.56;100000.34;4936543;29;20480;-78
2021/10/09 12:08:19;;;;;;;7.75;4.65;;;;;;;12.12;39.94;100002.03;4936000;29;20472;-77
2021/10/09 12:11:15;;;;;;;6.45;4.45;;;;;;;12.14;39.69;99994.34;4953198;29;20114;-78
2021/10/09 12:13:57;;;;;;;7.85;4.82;;;;;;;12.21;40.04;99992.16;4954427;29;20059;-77
2021/10/09 12:16:29;;;;;;;9.25;4.50;;;;;;;12.25;38.11;99992.44;4954111;29;20039;-79
2021/10/09 12:19:05;;;;;;;7.43;4.30;;;;;;;12.24;38.06;99999.03;4952055;29;20038;-79
2021/10/09 12:21:40;;;;;;;7.70;4.60;;;;;;;12.25;38.29;99989.69;4952323;29;20039;-79
2021/10/09 12:24:16;;;;;;;7.07;4.53;;;;;;;12.27;38.19;99991.06;4953075;29;20178;-80
2021/10/09 12:26:57;;;;;;;7.75;4.63;;;;;;;12.29;37.07;99980.63;4952968;29;20895;-77
2021/10/09 12:29:22;;;;;;;11.10;4.50;;;;;;;12.38;37.61;99989.19;4946783;29;20109;-78
2021/10/09 12:31:48;;;;;;;8.65;4.72;;;;;;;12.57;38.63;99985.91;4953369;29;20459;-79
2021/10/09 12:34:34;;;;;;;6.60;4.05;;;;;;;12.66;36.74;99987.84;4953035;29;20420;-78
2021/10/09 12:37:12;;;;;;;8.30;4.55;;;;;;;12.78;37.11;99978.53;4954720;29;20043;-79
2021/10/09 12:39:38;;;;;;;9.32;5.28;;;;;;;12.90;37.40;99984.59;4954508;29;20035;-79
2021/10/09 12:42:04;;;;;;;11.07;5.82;;;;;;;13.08;36.56;99976.88;4953410;29;20050;-78
2021/10/09 12:44:29;;;;;;;10.10;5.18;;;;;;;13.21;36.11;99981.84;4952110;29;20054;-77
2021/10/09 12:46:55;;;;;;;13.90;7.63;;;;;;;13.86;34.92;99974.03;4951422;29;20031;-78
2021/10/09 12:49:20;;;;;;;20.23;9.98;;;;;;;15.28;33.91;99977.34;4952862;29;20134;-78
2021/10/09 12:51:48;;;;;;;12.75;6.18;;;;;;;16.03;31.92;99973.25;4954275;29;21271;-79
2021/10/09 12:54:17;;;;;;;13.75;6.70;;;;;;;16.42;31.65;99970.53;4953794;29;20073;-80
2021/10/09 12:56:43;;;;;;;14.93;7.28;;;;;;;16.52;31.36;99973.97;4952335;29;20118;-80
2021/10/09 12:59:08;;;;;;;17.48;9.02;;;;;;;16.71;30.56;99975.09;4953896;29;20103;-76
2021/10/09 13:01:34;;;;;;;89.28;43.20;;;;;;;16.75;30.22;99968.63;4954390;28;20560;-78
2021/10/09 13:03:59;;;;;;;83.07;43.78;;;;;;;17.20;30.44;99970.16;4954441;29;20062;-75
2021/10/09 13:06:25;;;;;;;45.17;26.25;;;;;;;17.66;28.40;99972.13;4937676;29;20135;-77
2021/10/09 13:08:50;;;;;;;20.70;11.68;;;;;;;18.38;28.14;99966.25;4952697;29;20657;-78
2021/10/09 13:11:21;;;;;;;17.13;10.60;;;;;;;19.16;26.46;99960.53;4953982;29;20027;-77
2021/10/09 13:13:47;;;;;;;6.60;4.88;;;;;;;20.03;25.78;99952.94;4953898;29;20058;-78
2021/10/09 13:16:13;;;;;;;10.65;5.82;;;;;;;20.92;26.89;99952.72;4953468;29;20055;-77
2021/10/09 13:18:39;;;;;;;8.35;6.20;;;;;;;21.77;25.94;99949.59;4952411;29;20032;-77
2021/10/09 13:21:04;;;;;;;6.85;5.15;;;;;;;22.37;24.04;99944.78;4937513;29;20036;-79
2021/10/09 13:23:32;;;;;;;10.68;5.55;;;;;;;22.67;22.16;99943.91;4953608;29;20166;-79
2021/10/09 13:26:00;;;;;;;9.20;4.70;;;;;;;22.74;21.79;99944.19;4955157;29;20027;-77
2021/10/09 13:28:27;;;;;;;7.68;4.82;;;;;;;22.88;22.60;99938.31;4954397;29;20039;-77
2021/10/09 13:30:52;;;;;;;8.50;4.70;;;;;;;23.08;22.17;99936.63;4953248;29;20031;-76
2021/10/09 13:33:21;;;;;;;7.32;5.15;;;;;;;23.01;21.43;99925.22;4953750;29;20039;-78
2021/10/09 13:35:47;;;;;;;8.52;5.70;;;;;;;23.02;21.25;99929.63;4953969;29;20027;-77
2021/10/09 13:38:14;;;;;;;9.68;5.60;;;;;;;22.78;21.51;99933.16;4949088;29;20039;-77
2021/10/09 13:40:41;;;;;;;8.45;5.60;;;;;;;22.52;21.55;99929.41;4923759;29;20098;-77
2021/10/09 13:43:11;;;;;;;10.20;5.60;;;;;;;22.32;22.50;99925.44;4923933;29;20817;-78